Time;durP1;ratioP1;P1;durP2;ratioP2;P2;SDS_P1;SDS_P2;PMS_P1;PMS_P2;Temp;Humidity;BMP_temperature;BMP_pressure;BME280_temperature;BME280_humidity;BME280_pressure;Samples;Min_cycle;Max_cycle;Signal;HPM_P1;HPM_P2
2022/01/14 00:01:17;;;;;;;57.27;25.20;;;5.20;99.90;;;;;;4890639;29;39867;-77
2022/01/14 00:03:44;;;;;;;55.87;22.63;;;5.10;99.90;;;;;;4888887;29;38426;-77
2022/01/14 00:06:11;;;;;;;56.97;23.93;;;5.10;99.90;;;;;;4886191;29;37285;-77
2022/01/14 00:08:37;;;;;;;35.13;21.30;;;5.10;99.90;;;;;;4883775;29;37299;-77
2022/01/14 00:11:04;;;;;;;52.87;26.00;;;5.10;99.90;;;;;;4882699;28;39431;-77
2022/01/14 00:16:11;;;;;;;109.47;35.00;;;5.00;99.90;;;;;;4882769;29;36951;-77
2022/01/14 00:18:37;;;;;;;53.33;25.83;;;5.10;99.90;;;;;;4882900;29;39021;-77
2022/01/14 00:21:04;;;;;;;140.83;35.37;;;5.20;99.90;;;;;;4883684;28;38868;-77
2022/01/14 00:23:35;;;;;;;38.00;22.90;;;5.20;99.90;;;;;;4883462;29;38696;-77
2022/01/14 00:34:28;;;;;;;63.43;26.83;;;5.00;99.90;;;;;;4867981;29;48752;-76
2022/01/14 00:36:54;;;;;;;28.20;21.13;;;5.00;99.90;;;;;;4881838;29;37324;-75
2022/01/14 00:39:20;;;;;;;58.47;24.03;;;5.00;99.90;;;;;;4881478;29;37363;-75
2022/01/14 00:41:47;;;;;;;51.20;23.60;;;5.00;99.90;;;;;;4887633;29;37868;-76
2022/01/14 00:44:15;;;;;;;89.80;29.13;;;5.00;99.90;;;;;;4891582;29;39430;-76
2022/01/14 00:46:45;;;;;;;66.93;28.87;;;5.00;99.90;;;;;;4889881;28;38028;-75
2022/01/14 00:49:12;;;;;;;122.53;29.23;;;5.00;99.90;;;;;;4889430;29;40396;-75
2022/01/14 00:51:38;;;;;;;40.60;22.13;;;5.00;99.90;;;;;;4887784;28;38723;-76
2022/01/14 00:54:05;;;;;;;37.83;21.50;;;5.00;99.90;;;;;;4884037;29;37580;-75
2022/01/14 00:56:44;;;;;;;32.83;20.87;;;4.90;99.90;;;;;;4889272;29;38570;-75
2022/01/14 00:59:16;;;;;;;39.13;24.03;;;4.90;99.90;;;;;;4887395;29;38786;-75
2022/01/14 01:01:53;;;;;;;38.30;20.47;;;4.90;99.90;;;;;;4883517;29;37559;-76
2022/01/14 01:04:45;;;;;;;29.83;21.93;;;4.90;99.90;;;;;;4883946;29;37520;-76
2022/01/14 01:07:12;;;;;;;46.10;25.30;;;4.90;99.90;;;;;;4884530;29;38378;-75
2022/01/14 01:09:45;;;;;;;60.73;23.00;;;4.90;99.90;;;;;;4884718;29;37849;-76
2022/01/14 01:12:16;;;;;;;43.37;22.73;;;4.90;99.90;;;;;;4895326;29;38596;-77
2022/01/14 01:14:51;;;;;;;37.03;21.30;;;4.90;99.90;;;;;;4886997;29;37779;-77
2022/01/14 01:17:17;;;;;;;32.40;20.57;;;4.80;99.90;;;;;;4894183;28;37117;-77
2022/01/14 01:19:44;;;;;;;32.13;20.17;;;4.80;99.90;;;;;;4883945;29;39270;-77
2022/01/14 01:22:12;;;;;;;114.10;31.70;;;4.80;99.90;;;;;;4884404;29;39312;-77
2022/01/14 01:24:38;;;;;;;45.37;21.40;;;4.90;99.90;;;;;;4889869;29;39001;-76
2022/01/14 01:27:08;;;;;;;34.80;19.53;;;4.70;99.90;;;;;;4900871;29;37608;-75
2022/01/14 01:32:08;;;;;;;36.33;20.77;;;4.70;99.90;;;;;;4891087;29;39132;-77
2022/01/14 01:34:35;;;;;;;34.03;19.87;;;4.80;99.90;;;;;;4881813;29;37375;-74
2022/01/14 01:37:03;;;;;;;53.67;22.00;;;4.70;99.90;;;;;;4886293;29;37880;-74
2022/01/14 01:39:34;;;;;;;32.50;21.73;;;4.70;99.90;;;;;;4889821;29;38908;-75
2022/01/14 01:42:05;;;;;;;27.87;17.57;;;4.70;99.90;;;;;;4887863;29;40300;-77
2022/01/14 01:44:32;;;;;;;48.80;19.87;;;4.70;99.90;;;;;;4891008;29;48797;-75
2022/01/14 01:46:59;;;;;;;40.27;18.87;;;4.70;99.90;;;;;;4887740;29;38050;-75
2022/01/14 01:49:34;;;;;;;34.10;18.67;;;4.70;99.90;;;;;;4891740;29;38841;-75
2022/01/14 01:52:00;;;;;;;55.03;22.13;;;4.70;99.90;;;;;;4884510;29;38920;-75
2022/01/14 01:54:28;;;;;;;75.37;19.70;;;4.70;99.90;;;;;;4890303;29;47472;-75
2022/01/14 01:56:55;;;;;;;50.13;20.53;;;4.70;99.90;;;;;;4888822;29;38066;-75
2022/01/14 01:59:24;;;;;;;29.73;17.73;;;4.60;99.90;;;;;;4888432;29;41358;-75
2022/01/14 02:01:51;;;;;;;39.73;18.50;;;4.70;99.90;;;;;;4878935;29;39160;-76
2022/01/14 02:04:18;;;;;;;72.27;20.07;;;4.60;99.90;;;;;;4884186;29;40252;-75
2022/01/14 02:06:46;;;;;;;74.23;21.73;;;4.60;99.90;;;;;;4882792;29;38691;-75
2022/01/14 02:09:12;;;;;;;29.90;17.40;;;4.50;99.90;;;;;;4886138;29;38482;-76
2022/01/14 02:11:39;;;;;;;81.07;25.00;;;4.50;99.90;;;;;;4884444;29;38939;-74
2022/01/14 02:14:13;;;;;;;41.00;18.80;;;4.50;99.90;;;;;;4886781;29;40134;-74
2022/01/14 02:19:30;;;;;;;57.67;19.77;;;4.50;99.90;;;;;;4881965;29;40560;-75
2022/01/14 02:22:12;;;;;;;47.80;22.03;;;4.50;99.90;;;;;;4880347;29;39702;-75
2022/01/14 02:27:14;;;;;;;37.00;17.17;;;4.50;99.90;;;;;;4884365;29;36610;-75
2022/01/14 02:29:40;;;;;;;36.57;18.17;;;4.50;99.90;;;;;;4882157;29;40392;-76
2022/01/14 02:32:08;;;;;;;31.57;17.37;;;4.50;99.90;;;;;;4886605;29;39441;-77
2022/01/14 02:34:36;;;;;;;28.13;17.93;;;4.50;99.90;;;;;;4886927;29;38409;-76
2022/01/14 02:37:03;;;;;;;28.80;17.20;;;4.50;99.90;;;;;;4888293;29;38178;-76
2022/01/14 02:39:29;;;;;;;38.50;17.93;;;4.50;99.90;;;;;;4890928;29;39637;-76
2022/01/14 02:41:56;;;;;;;43.67;18.90;;;4.50;99.90;;;;;;4896946;29;37959;-77
2022/01/14 02:44:27;;;;;;;63.40;21.57;;;4.50;99.90;;;;;;4886906;29;39277;-74
2022/01/14 02:46:58;;;;;;;47.17;19.13;;;4.50;99.90;;;;;;4890209;29;37573;-74
2022/01/14 02:49:29;;;;;;;26.97;17.07;;;4.50;99.90;;;;;;4886019;29;39200;-75
2022/01/14 02:51:56;;;;;;;28.40;17.93;;;4.60;99.90;;;;;;4888160;29;39338;-75
2022/01/14 02:54:38;;;;;;;30.73;16.80;;;4.60;99.90;;;;;;4884572;29;37863;-76
2022/01/14 02:57:06;;;;;;;40.73;18.10;;;4.70;99.90;;;;;;4885561;29;36330;-75
2022/01/14 02:59:34;;;;;;;126.10;30.50;;;4.70;99.90;;;;;;4889596;29;39231;-75
2022/01/14 03:02:02;;;;;;;45.63;22.80;;;4.80;99.90;;;;;;4883542;29;39058;-75
2022/01/14 03:04:32;;;;;;;33.97;19.43;;;4.70;99.90;;;;;;4889285;29;47349;-75
2022/01/14 03:06:58;;;;;;;45.70;21.50;;;4.80;99.90;;;;;;4890428;29;38007;-75
2022/01/14 03:09:24;;;;;;;29.63;18.97;;;4.80;99.90;;;;;;4889994;29;40616;-75
2022/01/14 03:11:53;;;;;;;47.67;22.23;;;4.70;99.90;;;;;;4885296;29;37593;-75
2022/01/14 03:14:23;;;;;;;87.73;28.27;;;4.80;99.90;;;;;;4889723;29;37358;-75
2022/01/14 03:16:55;;;;;;;52.73;24.73;;;4.80;99.90;;;;;;4885489;28;38283;-75
2022/01/14 03:19:25;;;;;;;55.40;26.65;;;4.80;99.90;;;;;;4892391;29;38850;-76
2022/01/14 03:22:04;;;;;;;29.80;21.27;;;4.80;99.90;;;;;;4904350;28;40883;-75
2022/01/14 03:27:03;;;;;;;50.33;25.77;;;4.80;99.90;;;;;;4894102;29;37623;-75
2022/01/14 03:29:30;;;;;;;63.77;29.53;;;4.80;99.90;;;;;;4891826;29;39547;-76
2022/01/14 03:31:56;;;;;;;55.63;26.10;;;4.80;99.90;;;;;;4905862;28;40370;-76
2022/01/14 03:34:22;;;;;;;36.70;22.43;;;4.80;99.90;;;;;;4894810;29;38699;-76
2022/01/14 03:36:48;;;;;;;26.37;17.97;;;4.80;99.90;;;;;;4890335;29;38791;-75
2022/01/14 03:39:15;;;;;;;50.57;24.57;;;4.70;99.90;;;;;;4887735;29;39238;-76
2022/01/14 03:41:41;;;;;;;25.90;17.60;;;4.70;99.90;;;;;;4883824;29;40199;-75
2022/01/14 03:44:08;;;;;;;24.93;17.70;;;4.70;99.90;;;;;;4891371;29;39192;-75
2022/01/14 03:46:34;;;;;;;24.70;19.67;;;4.70;99.90;;;;;;4891212;29;37320;-75
2022/01/14 03:49:01;;;;;;;41.40;21.33;;;4.70;99.90;;;;;;4888226;29;38914;-75
2022/01/14 03:51:28;;;;;;;30.90;19.23;;;4.70;99.90;;;;;;4882971;29;46552;-75
2022/01/14 03:53:55;;;;;;;23.80;17.30;;;4.70;99.90;;;;;;4886662;29;40749;-75
2022/01/14 03:56:28;;;;;;;27.93;19.10;;;4.60;99.90;;;;;;4886609;29;37899;-75
2022/01/14 03:58:55;;;;;;;21.47;16.17;;;4.60;99.90;;;;;;4885582;29;38498;-75
2022/01/14 04:01:22;;;;;;;37.57;23.07;;;4.60;99.90;;;;;;4889842;29;39566;-75
2022/01/14 04:03:49;;;;;;;69.83;27.90;;;4.60;99.90;;;;;;4886162;29;38930;-75
2022/01/14 04:06:17;;;;;;;51.63;22.13;;;4.50;99.90;;;;;;4887727;29;37154;-75
2022/01/14 04:08:43;;;;;;;23.57;16.27;;;4.50;99.90;;;;;;4883763;29;40358;-75
2022/01/14 04:11:11;;;;;;;24.67;17.00;;;4.40;99.90;;;;;;4903234;29;40217;-75
2022/01/14 04:16:09;;;;;;;82.10;27.37;;;4.40;99.90;;;;;;4886184;29;38821;-76
2022/01/14 04:18:35;;;;;;;59.43;23.57;;;4.40;99.90;;;;;;4888179;29;37281;-75
2022/01/14 04:21:02;;;;;;;21.33;15.87;;;4.40;99.90;;;;;;4889580;29;40474;-75
2022/01/14 04:23:28;;;;;;;22.10;16.07;;;4.40;99.90;;;;;;4894651;29;39389;-76
2022/01/14 04:25:56;;;;;;;48.17;20.37;;;4.40;99.90;;;;;;4891732;29;38658;-76
2022/01/14 04:28:24;;;;;;;25.07;16.40;;;4.30;99.90;;;;;;4892551;29;39731;-76
2022/01/14 04:30:54;;;;;;;36.60;18.70;;;4.30;99.90;;;;;;4889729;29;40128;-76
2022/01/14 04:33:22;;;;;;;47.07;18.13;;;4.30;99.90;;;;;;4890013;29;39370;-75
2022/01/14 04:35:48;;;;;;;33.83;17.33;;;4.30;99.90;;;;;;4890719;29;37784;-75
2022/01/14 04:38:14;;;;;;;23.77;16.63;;;4.20;99.90;;;;;;4891861;28;39620;-75
2022/01/14 04:40:40;;;;;;;20.57;16.20;;;4.20;99.90;;;;;;4889297;29;38125;-75
2022/01/14 04:43:07;;;;;;;18.80;13.93;;;4.20;99.90;;;;;;4890337;29;39174;-75
2022/01/14 04:48:09;;;;;;;27.03;17.03;;;4.20;99.90;;;;;;4891049;29;40305;-75
2022/01/14 04:50:35;;;;;;;52.95;20.67;;;4.20;99.90;;;;;;4891059;29;38874;-75
2022/01/14 04:53:02;;;;;;;18.53;14.50;;;4.10;99.90;;;;;;4891501;28;38375;-75
2022/01/14 04:55:28;;;;;;;28.03;15.40;;;4.10;99.90;;;;;;4890003;29;38146;-75
2022/01/14 04:57:56;;;;;;;24.07;15.80;;;4.10;99.90;;;;;;4891516;29;38970;-75
2022/01/14 05:00:25;;;;;;;34.57;21.63;;;4.10;99.90;;;;;;4887276;29;39518;-75
2022/01/14 05:02:53;;;;;;;19.37;14.43;;;4.10;99.90;;;;;;4900827;29;39170;-75
2022/01/14 05:05:22;;;;;;;16.63;14.17;;;4.10;99.90;;;;;;4888563;29;38792;-75
2022/01/14 05:07:50;;;;;;;17.13;14.23;;;4.00;99.90;;;;;;4890374;29;39039;-74
2022/01/14 05:12:55;;;;;;;23.40;14.07;;;4.00;99.90;;;;;;4891360;29;38247;-75
2022/01/14 05:15:21;;;;;;;29.60;18.50;;;4.00;99.90;;;;;;4890321;29;38430;-76
2022/01/14 05:17:48;;;;;;;32.90;22.47;;;4.00;99.90;;;;;;4892731;29;38730;-74
2022/01/14 05:20:16;;;;;;;27.73;15.10;;;3.90;99.90;;;;;;4889659;29;38777;-75
2022/01/14 05:22:43;;;;;;;38.87;15.80;;;4.00;99.90;;;;;;4892246;28;39331;-75
2022/01/14 05:25:11;;;;;;;32.87;16.30;;;3.90;99.90;;;;;;4887439;29;38704;-75
2022/01/14 05:27:41;;;;;;;65.70;22.07;;;3.80;99.90;;;;;;4889966;29;38816;-75
2022/01/14 05:30:09;;;;;;;36.00;16.03;;;3.80;99.90;;;;;;4887998;29;40016;-75
2022/01/14 05:32:35;;;;;;;21.13;14.23;;;3.80;99.90;;;;;;4890098;29;38152;-75
2022/01/14 05:35:03;;;;;;;53.07;19.90;;;3.70;99.90;;;;;;4885843;29;38196;-74
2022/01/14 05:37:29;;;;;;;21.80;15.10;;;3.70;99.90;;;;;;4893028;29;38818;-75
2022/01/14 05:39:57;;;;;;;52.00;17.80;;;3.70;99.90;;;;;;4879454;29;39273;-75
2022/01/14 05:42:23;;;;;;;41.77;19.33;;;3.70;99.90;;;;;;4889041;28;39228;-75
2022/01/14 05:44:51;;;;;;;46.97;16.27;;;3.70;99.90;;;;;;4891534;29;38277;-75
2022/01/14 05:47:17;;;;;;;81.80;21.50;;;3.70;99.90;;;;;;4889969;29;38982;-75
2022/01/14 05:49:45;;;;;;;38.97;16.50;;;3.70;99.90;;;;;;4892400;29;38997;-74
2022/01/14 05:52:11;;;;;;;47.23;15.97;;;3.60;99.90;;;;;;4910024;29;39122;-74
2022/01/14 05:54:37;;;;;;;40.07;15.80;;;3.60;99.90;;;;;;4903681;29;37570;-74
2022/01/14 05:57:03;;;;;;;38.10;16.60;;;3.60;99.90;;;;;;4893409;29;39724;-74
2022/01/14 05:59:29;;;;;;;34.93;17.27;;;3.60;99.90;;;;;;4891252;29;38784;-75
2022/01/14 06:01:56;;;;;;;46.53;15.93;;;3.60;99.90;;;;;;4876921;29;40104;-75
2022/01/14 06:04:22;;;;;;;32.23;14.63;;;3.60;99.90;;;;;;4888493;29;37186;-75
2022/01/14 06:06:48;;;;;;;126.17;33.63;;;3.50;99.90;;;;;;4890232;29;39289;-74
2022/01/14 06:09:14;;;;;;;20.73;14.83;;;3.60;99.90;;;;;;4906406;29;39108;-74
2022/01/14 06:11:40;;;;;;;48.57;17.47;;;3.60;99.90;;;;;;4886193;29;38598;-75
2022/01/14 06:14:06;;;;;;;37.17;16.70;;;3.60;99.90;;;;;;4887638;29;37173;-74
2022/01/14 06:16:32;;;;;;;36.90;16.93;;;3.50;99.90;;;;;;4900657;29;39100;-76
2022/01/14 06:18:58;;;;;;;37.53;16.97;;;3.50;99.90;;;;;;4885426;29;39326;-75
2022/01/14 06:21:25;;;;;;;28.83;17.10;;;3.50;99.90;;;;;;4883382;29;39458;-74
2022/01/14 06:23:51;;;;;;;33.20;16.63;;;3.50;99.90;;;;;;4883524;29;36235;-74
2022/01/14 06:26:17;;;;;;;45.20;18.47;;;3.50;99.90;;;;;;4886497;29;39296;-74
2022/01/14 06:28:43;;;;;;;34.20;17.40;;;3.60;99.90;;;;;;4886110;29;39646;-75
2022/01/14 06:31:09;;;;;;;29.10;17.00;;;3.60;99.90;;;;;;4887573;29;39062;-75
2022/01/14 06:33:36;;;;;;;26.47;14.17;;;3.50;99.90;;;;;;4891660;29;37367;-77
2022/01/14 06:36:02;;;;;;;25.60;14.87;;;3.50;99.90;;;;;;4892830;29;38702;-75
2022/01/14 06:38:28;;;;;;;21.80;14.13;;;3.60;99.90;;;;;;4889149;29;39223;-75
2022/01/14 06:40:54;;;;;;;46.20;16.67;;;3.60;99.90;;;;;;4889727;29;39094;-75
2022/01/14 06:43:20;;;;;;;24.83;16.27;;;3.60;99.90;;;;;;4890521;29;38409;-75
2022/01/14 06:45:46;;;;;;;34.87;17.67;;;3.50;99.90;;;;;;4902535;29;39684;-75
2022/01/14 06:48:12;;;;;;;19.27;13.17;;;3.50;99.90;;;;;;4903408;29;39684;-75
2022/01/14 06:50:38;;;;;;;26.67;14.00;;;3.50;99.90;;;;;;4889381;29;38451;-75
2022/01/14 06:53:04;;;;;;;33.70;17.60;;;3.50;99.90;;;;;;4903776;29;38937;-74
2022/01/14 06:55:30;;;;;;;68.23;17.43;;;3.50;99.90;;;;;;4891207;29;40214;-74
2022/01/14 06:57:56;;;;;;;30.57;16.87;;;3.50;99.90;;;;;;4891313;29;39365;-74
2022/01/14 07:00:23;;;;;;;42.53;14.47;;;3.50;99.90;;;;;;4888686;29;38175;-74
2022/01/14 07:02:49;;;;;;;29.07;15.53;;;3.50;99.90;;;;;;4888658;29;38171;-75
2022/01/14 07:05:15;;;;;;;23.17;15.20;;;3.60;99.90;;;;;;4885582;29;39476;-75
2022/01/14 07:07:42;;;;;;;31.37;15.17;;;3.60;99.90;;;;;;4888982;29;39631;-75
2022/01/14 07:10:09;;;;;;;84.80;21.23;;;3.50;99.90;;;;;;4892883;29;39157;-75
2022/01/14 07:12:41;;;;;;;55.63;14.70;;;3.60;99.90;;;;;;4890187;29;38284;-75
2022/01/14 07:15:10;;;;;;;47.45;20.08;;;3.50;99.90;;;;;;4887870;29;39630;-75
2022/01/14 07:17:37;;;;;;;47.43;19.17;;;3.50;99.90;;;;;;4889403;29;39609;-75
2022/01/14 07:20:08;;;;;;;37.40;15.43;;;3.50;99.90;;;;;;4889960;29;39550;-75
2022/01/14 07:22:35;;;;;;;100.57;27.37;;;3.50;99.90;;;;;;4887908;28;47223;-74
2022/01/14 07:25:02;;;;;;;15.97;13.50;;;3.50;99.90;;;;;;4881472;29;42740;-75
2022/01/14 07:27:28;;;;;;;20.70;15.23;;;3.50;99.90;;;;;;4883842;29;39191;-74
2022/01/14 07:29:55;;;;;;;45.57;22.00;;;3.70;99.90;;;;;;4885310;29;38941;-73
2022/01/14 07:32:21;;;;;;;17.63;13.73;;;3.60;99.90;;;;;;4884766;29;37915;-73
2022/01/14 07:34:48;;;;;;;23.37;15.90;;;3.60;99.90;;;;;;4887116;29;38583;-73
2022/01/14 07:37:15;;;;;;;29.77;17.23;;;3.60;99.90;;;;;;4888766;29;38742;-75
2022/01/14 07:39:41;;;;;;;32.47;21.53;;;3.60;99.90;;;;;;4887390;29;39404;-75
2022/01/14 07:42:08;;;;;;;17.67;14.47;;;3.50;99.90;;;;;;4895922;28;39082;-74
2022/01/14 07:44:34;;;;;;;20.40;14.33;;;3.60;99.90;;;;;;4887842;29;38091;-74
2022/01/14 07:47:01;;;;;;;16.87;14.03;;;3.50;99.90;;;;;;4886538;28;38575;-74
2022/01/14 07:49:27;;;;;;;18.10;13.53;;;3.50;99.90;;;;;;4889023;29;48803;-74
2022/01/14 07:51:53;;;;;;;23.03;15.10;;;3.50;99.90;;;;;;4884803;29;37290;-74
2022/01/14 07:54:19;;;;;;;25.10;17.47;;;3.50;99.90;;;;;;4890304;29;40343;-74
2022/01/14 07:56:48;;;;;;;32.20;16.40;;;3.50;99.90;;;;;;4887137;29;38982;-75
2022/01/14 07:59:15;;;;;;;34.53;16.57;;;3.50;99.90;;;;;;4888959;29;38524;-74
2022/01/14 08:01:43;;;;;;;83.27;24.00;;;3.50;99.90;;;;;;4885046;29;38976;-75
2022/01/14 08:04:10;;;;;;;33.97;15.57;;;3.50;99.90;;;;;;4886511;29;40238;-74
2022/01/14 08:06:44;;;;;;;95.57;26.13;;;3.50;99.90;;;;;;4886461;28;38825;-74
2022/01/14 08:09:10;;;;;;;38.63;20.40;;;3.40;99.90;;;;;;4898503;29;39100;-74
2022/01/14 08:11:36;;;;;;;27.97;16.90;;;3.40;99.90;;;;;;4886093;29;37799;-74
2022/01/14 08:14:02;;;;;;;60.60;19.20;;;3.40;99.90;;;;;;4889706;29;38704;-74
2022/01/14 08:16:28;;;;;;;36.00;18.23;;;3.40;99.90;;;;;;4881382;29;39003;-74
2022/01/14 08:18:54;;;;;;;23.03;15.67;;;3.40;99.90;;;;;;4902717;29;41479;-74
2022/01/14 08:21:20;;;;;;;30.20;15.83;;;3.30;99.90;;;;;;4894966;28;37526;-74
2022/01/14 08:23:47;;;;;;;56.97;18.07;;;3.30;99.90;;;;;;4891706;29;39668;-74
2022/01/14 08:26:13;;;;;;;36.13;17.23;;;3.30;99.90;;;;;;4887500;29;39782;-74
2022/01/14 08:28:39;;;;;;;51.40;18.93;;;3.20;99.90;;;;;;4887842;29;40716;-74
2022/01/14 08:31:06;;;;;;;26.83;15.60;;;3.30;99.90;;;;;;4880440;29;37965;-74
2022/01/14 08:33:32;;;;;;;36.07;17.93;;;3.30;99.90;;;;;;4891007;29;39378;-74
2022/01/14 08:35:58;;;;;;;27.47;16.87;;;3.40;99.90;;;;;;4884560;29;39314;-74
2022/01/14 08:38:25;;;;;;;18.07;15.20;;;3.40;99.90;;;;;;4889154;29;38010;-74
2022/01/14 08:40:51;;;;;;;31.43;16.83;;;3.50;99.90;;;;;;4885983;29;38308;-74
2022/01/14 08:43:17;;;;;;;19.27;15.67;;;3.50;99.90;;;;;;4892408;28;38637;-74
2022/01/14 08:45:44;;;;;;;21.33;17.37;;;3.60;99.90;;;;;;4886304;29;38935;-74
2022/01/14 08:48:10;;;;;;;28.13;16.27;;;3.60;99.90;;;;;;4888043;29;39445;-75
2022/01/14 08:50:38;;;;;;;26.57;16.37;;;3.80;99.90;;;;;;4888700;29;37896;-74
2022/01/14 08:53:07;;;;;;;28.03;16.70;;;3.70;99.90;;;;;;4890393;29;40730;-74
2022/01/14 08:55:35;;;;;;;32.90;23.23;;;3.70;99.90;;;;;;4888906;29;38447;-78
2022/01/14 08:58:03;;;;;;;22.80;17.53;;;3.80;99.90;;;;;;4884342;29;39161;-73
2022/01/14 09:00:30;;;;;;;19.37;15.70;;;3.80;99.90;;;;;;4892307;29;47354;-74
2022/01/14 09:02:56;;;;;;;21.93;15.63;;;3.90;99.90;;;;;;4887563;29;39807;-75
2022/01/14 09:05:23;;;;;;;25.60;18.07;;;3.80;99.90;;;;;;4888914;29;40255;-76
2022/01/14 09:07:50;;;;;;;21.53;16.57;;;3.80;99.90;;;;;;4887553;29;38638;-75
2022/01/14 09:10:18;;;;;;;22.50;16.53;;;3.90;99.90;;;;;;4893063;28;38194;-75
2022/01/14 09:12:44;;;;;;;25.53;17.67;;;3.90;99.90;;;;;;4892794;29;38799;-75
2022/01/14 09:15:11;;;;;;;20.27;15.53;;;4.00;99.90;;;;;;4887976;28;38712;-76
2022/01/14 09:17:37;;;;;;;22.63;16.23;;;4.00;99.90;;;;;;4882658;29;38198;-76
2022/01/14 09:20:05;;;;;;;27.57;18.10;;;3.90;99.90;;;;;;4901170;29;38029;-76
2022/01/14 09:22:35;;;;;;;21.67;16.33;;;4.00;99.90;;;;;;4903572;29;46932;-76
2022/01/14 09:25:07;;;;;;;24.30;16.90;;;4.10;99.90;;;;;;4887066;29;38740;-76
2022/01/14 09:27:34;;;;;;;25.57;17.90;;;4.20;99.90;;;;;;4891226;29;48899;-75
2022/01/14 09:30:02;;;;;;;30.23;20.07;;;4.30;99.90;;;;;;4887525;29;39204;-75
2022/01/14 09:32:28;;;;;;;25.30;16.50;;;4.40;99.90;;;;;;4887915;29;49065;-76
2022/01/14 09:34:54;;;;;;;23.47;18.13;;;4.40;99.90;;;;;;4884502;29;38068;-76
2022/01/14 09:37:20;;;;;;;24.00;18.77;;;4.40;99.90;;;;;;4879987;29;38465;-75
2022/01/14 09:39:46;;;;;;;35.77;23.97;;;4.40;99.90;;;;;;4889031;29;38251;-76
2022/01/14 09:42:14;;;;;;;19.83;16.80;;;4.50;99.90;;;;;;4884620;29;39366;-75
2022/01/14 09:44:45;;;;;;;21.20;16.17;;;4.60;99.90;;;;;;4883700;29;38489;-77
2022/01/14 09:47:20;;;;;;;23.43;17.37;;;4.70;99.90;;;;;;4888176;28;38370;-75
2022/01/14 09:49:46;;;;;;;24.60;19.03;;;4.80;99.90;;;;;;4889672;29;38053;-76
2022/01/14 09:52:14;;;;;;;21.23;17.80;;;4.80;99.90;;;;;;4884974;29;38672;-75
2022/01/14 09:54:45;;;;;;;18.90;16.10;;;4.80;99.90;;;;;;4886878;29;37365;-75
2022/01/14 09:57:14;;;;;;;17.67;15.67;;;4.80;99.90;;;;;;4887620;28;38250;-75
2022/01/14 09:59:41;;;;;;;24.47;17.70;;;4.90;99.90;;;;;;4900201;29;38229;-75
2022/01/14 10:02:07;;;;;;;37.67;26.67;;;5.10;99.90;;;;;;4885396;29;39337;-78
2022/01/14 10:04:35;;;;;;;20.03;16.37;;;5.30;99.90;;;;;;4894355;29;38945;-78
2022/01/14 10:07:03;;;;;;;17.73;14.17;;;5.40;99.90;;;;;;4881509;29;40376;-78
2022/01/14 10:09:34;;;;;;;19.97;15.37;;;5.30;99.90;;;;;;4881538;29;38409;-78
2022/01/14 10:12:01;;;;;;;21.97;16.30;;;5.20;99.90;;;;;;4883894;29;39146;-77
2022/01/14 10:14:28;;;;;;;21.43;17.33;;;5.20;99.90;;;;;;4892706;29;48928;-76
2022/01/14 10:16:57;;;;;;;19.30;14.77;;;5.20;99.90;;;;;;4907011;28;40015;-76
2022/01/14 10:19:26;;;;;;;22.53;17.57;;;5.20;99.90;;;;;;4885973;29;37741;-76
2022/01/14 10:21:55;;;;;;;21.90;14.87;;;5.30;99.90;;;;;;4892182;29;20084;-76
2022/01/14 10:24:27;;;;;;;25.77;19.80;;;5.40;99.90;;;;;;4879224;29;39174;-76
2022/01/14 10:26:56;;;;;;;24.60;19.52;;;5.50;99.90;;;;;;4892464;29;39661;-75
2022/01/14 10:29:38;;;;;;;17.87;14.40;;;5.60;99.90;;;;;;4888392;29;39261;-77
2022/01/14 10:32:06;;;;;;;19.87;16.50;;;5.70;99.90;;;;;;4891362;28;38983;-77
2022/01/14 10:34:34;;;;;;;19.20;15.27;;;5.70;99.90;;;;;;4891502;29;38955;-77
2022/01/14 10:37:15;;;;;;;18.37;15.13;;;5.60;99.90;;;;;;4897569;29;39830;-77
2022/01/14 10:39:48;;;;;;;20.43;16.87;;;5.70;99.90;;;;;;4897474;29;48554;-77
2022/01/14 10:42:27;;;;;;;18.37;14.93;;;5.90;99.90;;;;;;4903711;28;39162;-77
2022/01/14 10:44:55;;;;;;;19.53;15.80;;;5.80;99.90;;;;;;4897261;29;39970;-77
2022/01/14 10:47:24;;;;;;;18.33;14.77;;;5.80;99.90;;;;;;4897411;29;37898;-77
2022/01/14 10:49:55;;;;;;;19.70;14.57;;;5.90;99.90;;;;;;4893616;29;36462;-77
2022/01/14 10:52:23;;;;;;;18.03;14.87;;;5.90;99.90;;;;;;4893319;29;38513;-77
2022/01/14 10:54:57;;;;;;;26.57;14.90;;;6.00;99.90;;;;;;4899044;29;38886;-77
2022/01/14 10:57:27;;;;;;;29.57;16.40;;;6.10;99.90;;;;;;4910787;29;38096;-77
2022/01/14 11:00:13;;;;;;;29.93;16.70;;;6.20;99.90;;;;;;4886549;29;37719;-76
2022/01/14 11:02:42;;;;;;;19.17;14.57;;;6.40;99.90;;;;;;4889196;29;47081;-77
2022/01/14 11:05:13;;;;;;;25.67;15.43;;;6.30;99.90;;;;;;4898319;29;39021;-77
2022/01/14 11:07:41;;;;;;;19.03;15.10;;;6.40;99.90;;;;;;4910048;29;39180;-77
2022/01/14 11:10:15;;;;;;;20.30;14.37;;;6.40;99.90;;;;;;4896993;29;37482;-77
2022/01/14 11:12:42;;;;;;;21.57;13.77;;;6.40;99.90;;;;;;4893293;29;39256;-77
2022/01/14 11:15:10;;;;;;;17.57;14.00;;;6.50;99.90;;;;;;4888043;28;37784;-77
2022/01/14 11:17:38;;;;;;;22.47;16.00;;;6.70;99.90;;;;;;4901804;29;38843;-77
2022/01/14 11:20:07;;;;;;;18.63;16.27;;;6.80;99.90;;;;;;4894532;29;37229;-77
2022/01/14 11:25:18;;;;;;;23.97;16.17;;;6.70;99.90;;;;;;4890070;29;39964;-77
2022/01/14 11:27:52;;;;;;;21.93;15.20;;;6.70;99.90;;;;;;4903873;29;39251;-77
2022/01/14 11:30:18;;;;;;;22.60;16.63;;;6.70;99.90;;;;;;4878875;29;36381;-77
2022/01/14 11:32:55;;;;;;;23.07;15.60;;;6.70;99.90;;;;;;4883197;29;40912;-78
2022/01/14 11:35:24;;;;;;;34.33;16.43;;;6.70;99.90;;;;;;4886202;29;39613;-77
2022/01/14 11:37:51;;;;;;;34.87;16.53;;;6.80;99.90;;;;;;4899176;29;39411;-78
2022/01/14 11:40:18;;;;;;;26.93;17.10;;;6.70;99.90;;;;;;4886148;28;37684;-78
2022/01/14 11:42:50;;;;;;;24.53;16.80;;;6.60;99.90;;;;;;4893798;29;38445;-77
2022/01/14 11:45:18;;;;;;;20.23;15.93;;;6.70;99.90;;;;;;4899742;28;39091;-78
2022/01/14 11:47:46;;;;;;;26.27;17.23;;;6.70;99.90;;;;;;4893133;29;39549;-78
2022/01/14 11:50:18;;;;;;;24.67;17.10;;;6.70;99.90;;;;;;4892548;28;37189;-78
2022/01/14 11:52:45;;;;;;;25.50;18.15;;;6.80;99.90;;;;;;4890109;29;38563;-78
2022/01/14 11:55:15;;;;;;;22.37;16.60;;;6.80;99.90;;;;;;4890487;29;37684;-77
2022/01/14 11:57:45;;;;;;;21.70;17.17;;;6.80;99.90;;;;;;4892879;29;38355;-77
2022/01/14 12:00:26;;;;;;;29.10;19.17;;;6.90;99.90;;;;;;4890004;29;38247;-77
2022/01/14 12:02:54;;;;;;;23.60;18.57;;;7.00;99.90;;;;;;4894712;28;38770;-77
2022/01/14 12:05:28;;;;;;;23.07;16.67;;;7.10;99.90;;;;;;4896181;28;40164;-77
2022/01/14 12:08:04;;;;;;;24.87;16.80;;;7.10;99.90;;;;;;4896279;29;39760;-78
2022/01/14 12:10:32;;;;;;;20.87;17.10;;;6.90;99.90;;;;;;4894880;29;48853;-77
2022/01/14 12:13:27;;;;;;;26.23;17.23;;;7.10;99.90;;;;;;4886812;29;38992;-77
2022/01/14 12:16:00;;;;;;;22.70;17.97;;;7.00;99.90;;;;;;4886214;29;47339;-78
2022/01/14 12:18:45;;;;;;;26.77;17.50;;;7.00;99.90;;;;;;4890769;29;39320;-77
2022/01/14 12:21:14;;;;;;;24.40;18.97;;;7.00;99.90;;;;;;4889059;29;38209;-77
2022/01/14 12:23:40;;;;;;;25.00;18.87;;;7.10;99.90;;;;;;4893490;29;39311;-77
2022/01/14 12:26:19;;;;;;;23.63;18.43;;;7.20;99.90;;;;;;4890644;29;39634;-77
2022/01/14 12:29:06;;;;;;;21.40;16.93;;;7.20;99.90;;;;;;4888068;29;38270;-77
2022/01/14 12:32:10;;;;;;;21.20;15.97;;;7.30;99.90;;;;;;4895309;29;48241;-77
2022/01/14 12:34:39;;;;;;;22.57;17.27;;;7.40;99.90;;;;;;4886852;29;46814;-77
2022/01/14 12:37:06;;;;;;;27.53;19.73;;;7.40;99.90;;;;;;4889239;29;39727;-77
2022/01/14 12:39:36;;;;;;;22.03;19.33;;;7.30;99.90;;;;;;4884598;29;38231;-76
2022/01/14 12:42:02;;;;;;;28.30;18.27;;;7.30;99.90;;;;;;4888205;29;35901;-77
2022/01/14 12:44:29;;;;;;;26.47;20.67;;;7.40;99.90;;;;;;4890178;29;37954;-77
2022/01/14 12:47:05;;;;;;;21.17;16.87;;;7.50;99.90;;;;;;4880697;29;39035;-77
2022/01/14 12:49:39;;;;;;;22.10;17.10;;;7.50;99.90;;;;;;4885762;29;47051;-77
2022/01/14 12:52:08;;;;;;;23.60;18.07;;;7.40;99.90;;;;;;4885317;29;37430;-77
2022/01/14 12:54:37;;;;;;;21.33;17.30;;;7.40;99.90;;;;;;4892778;29;38996;-77
2022/01/14 12:57:04;;;;;;;23.37;17.63;;;7.50;99.90;;;;;;4886806;29;40467;-77
2022/01/14 12:59:57;;;;;;;21.30;15.43;;;7.60;99.90;;;;;;4898660;29;38264;-77
2022/01/14 13:02:31;;;;;;;22.23;16.75;;;7.60;99.90;;;;;;4888284;29;38522;-77
2022/01/14 13:05:03;;;;;;;25.07;16.53;;;7.60;99.90;;;;;;4864380;29;38137;-77
2022/01/14 13:07:30;;;;;;;22.75;17.35;;;7.60;99.90;;;;;;4892130;29;47555;-77
2022/01/14 13:09:56;;;;;;;25.10;17.90;;;7.60;99.90;;;;;;4890655;29;38523;-77
2022/01/14 13:12:27;;;;;;;22.47;16.27;;;7.70;99.90;;;;;;4891965;28;38536;-77
2022/01/14 13:15:02;;;;;;;27.70;18.03;;;7.80;99.90;;;;;;4888910;29;38082;-78